Search for airport 
image banner adimage banner adimage banner ad
image banner ad

72CL - Iron Mountain Pumping Plant

Located in Desert Center, United States

ICAO - 72CL, IATA -

Data provided by Airmate  

General information

Coordinates: N34°8'3" W115°7'9"
Elevation is 890 feet MSL.
Magnetic variation is 13° East
View others Airports in California

Operational data

Special qualification required
Current time UTC:
Current local time:
Weather at : KBLH - Blythe ( 68 km )
METAR: KBLH 240852Z AUTO 34006KT 10SM CLR 24/22 A2985 RMK AO2 SLP101 T02440217 58007
TAF: KBLH 240520Z 2406/2506 02005KT P6SM FEW110 FM241200 14004KT P6SM SKC FM241900 18007KT P6SM SKC FM242300 23012KT P6SM SKC FM250500 25008KT P6SM SKC
View NOTAMs / SUP AIP / TFR affecting this airport [VIEW]
Communications frequencies: [VIEW]

Runways:

RWY identifierQFULength (ft)Width (ft)SurfaceLDA (ft)
17320030ASPH
35320030ASPH

Airport contact information

Address: Desert Center United States

Satellite view of 72CL